createdAt,value
2018-08-03T00:01:07.329Z,22.40
2018-08-03T00:03:41.664Z,22.40
2018-08-03T00:06:16.667Z,22.50
2018-08-03T00:08:51.598Z,22.50
2018-08-03T00:11:26.196Z,22.40
2018-08-03T00:14:00.550Z,22.40
2018-08-03T00:16:35.719Z,22.50
2018-08-03T00:19:10.037Z,22.50
2018-08-03T00:21:45.262Z,22.50
2018-08-03T00:24:19.735Z,22.50
2018-08-03T00:26:54.464Z,22.50
2018-08-03T00:29:29.490Z,22.50
2018-08-03T00:32:03.903Z,22.50
2018-08-03T00:34:38.513Z,22.40
2018-08-03T00:37:13.311Z,22.40
2018-08-03T00:39:48.066Z,22.40
2018-08-03T00:42:23.359Z,22.40
2018-08-03T00:44:58.129Z,22.30
2018-08-03T00:47:33.170Z,22.30
2018-08-03T00:50:14.251Z,22.30
2018-08-03T00:52:49.285Z,22.30
2018-08-03T00:55:24.175Z,22.30
2018-08-03T00:57:58.992Z,22.30
2018-08-03T01:00:33.998Z,22.30
2018-08-03T01:03:09.272Z,22.20
2018-08-03T01:05:43.528Z,22.20
2018-08-03T01:08:18.213Z,22.20
2018-08-03T01:10:53.083Z,22.20
2018-08-03T01:13:27.713Z,22.20
2018-08-03T01:16:02.624Z,22.20
2018-08-03T01:18:37.142Z,22.10
2018-08-03T01:21:11.828Z,22.00
2018-08-03T01:23:46.673Z,22.00
2018-08-03T01:26:21.422Z,22.00
2018-08-03T01:28:56.236Z,21.90
2018-08-03T01:31:30.677Z,21.80
2018-08-03T01:34:05.812Z,21.80
2018-08-03T01:36:40.073Z,21.80
2018-08-03T01:39:15.207Z,21.70
2018-08-03T01:41:49.561Z,21.70
2018-08-03T01:44:24.303Z,21.70
2018-08-03T01:46:59.440Z,21.60
2018-08-03T01:49:34.011Z,21.60
2018-08-03T01:52:08.901Z,21.50
2018-08-03T01:54:43.655Z,21.50
2018-08-03T01:57:17.944Z,21.40
2018-08-03T01:59:52.693Z,21.40
2018-08-03T02:05:01.960Z,21.40
2018-08-03T02:07:36.899Z,21.30
2018-08-03T02:10:11.705Z,21.30
2018-08-03T02:12:46.461Z,21.30
2018-08-03T02:15:21.537Z,21.30
2018-08-03T02:17:55.824Z,21.30
2018-08-03T02:20:31.619Z,21.30
2018-08-03T02:23:06.613Z,21.40
2018-08-03T02:25:40.992Z,21.30
2018-08-03T02:28:15.898Z,21.30
2018-08-03T02:30:50.666Z,21.30
2018-08-03T02:33:25.374Z,21.30
2018-08-03T02:36:00.493Z,21.30
2018-08-03T02:38:35.415Z,21.20
2018-08-03T02:41:09.914Z,21.20
2018-08-03T02:43:44.529Z,21.20
2018-08-03T02:46:19.145Z,21.10
2018-08-03T02:48:54.074Z,21.10
2018-08-03T02:51:28.841Z,21.10
2018-08-03T02:54:03.738Z,21.10
2018-08-03T02:56:38.532Z,21.00
2018-08-03T02:59:13.567Z,21.00
2018-08-03T03:01:48.020Z,21.00
2018-08-03T03:04:22.668Z,20.90
2018-08-03T03:06:57.337Z,20.90
2018-08-03T03:09:32.494Z,20.90
2018-08-03T03:12:07.073Z,20.90
2018-08-03T03:14:41.639Z,20.90
2018-08-03T03:17:15.913Z,20.90
2018-08-03T03:19:50.085Z,20.90
2018-08-03T03:22:24.757Z,20.90
2018-08-03T03:24:59.600Z,20.90
2018-08-03T03:27:33.953Z,20.90
2018-08-03T03:30:09.065Z,20.90
2018-08-03T03:32:43.161Z,20.80
2018-08-03T03:35:18.268Z,20.90
2018-08-03T03:37:52.901Z,20.80
2018-08-03T03:40:27.225Z,20.80
2018-08-03T03:43:02.313Z,20.90
2018-08-03T03:45:37.257Z,20.80
2018-08-03T03:48:11.796Z,20.80
2018-08-03T03:50:46.400Z,20.80
2018-08-03T03:53:21.145Z,20.80
2018-08-03T03:58:30.542Z,20.80
2018-08-03T04:01:05.416Z,20.80
2018-08-03T04:03:39.924Z,20.80
2018-08-03T04:06:14.644Z,20.80
2018-08-03T04:08:49.642Z,20.80
2018-08-03T04:11:23.760Z,20.80
2018-08-03T04:13:58.551Z,20.80
2018-08-03T04:16:33.764Z,20.80
2018-08-03T04:19:08.098Z,20.80
2018-08-03T04:21:42.396Z,20.80
2018-08-03T04:24:16.986Z,20.80
2018-08-03T04:26:52.783Z,20.80
2018-08-03T04:29:27.676Z,20.80
2018-08-03T04:32:03.265Z,20.90
2018-08-03T04:34:37.391Z,20.80
2018-08-03T04:37:12.314Z,20.90
2018-08-03T04:39:47.018Z,20.90
2018-08-03T04:42:21.747Z,20.90
2018-08-03T04:44:56.459Z,21.00
2018-08-03T04:47:31.106Z,21.10
2018-08-03T04:50:05.954Z,21.10
2018-08-03T04:52:40.921Z,21.10
2018-08-03T04:55:15.620Z,21.20
2018-08-03T04:57:50.373Z,21.30
2018-08-03T05:00:25.057Z,21.30
2018-08-03T05:02:59.827Z,21.40
2018-08-03T05:05:34.619Z,21.50
2018-08-03T05:08:09.098Z,21.60
2018-08-03T05:10:44.296Z,21.60
2018-08-03T05:13:18.653Z,21.70
2018-08-03T05:15:53.258Z,21.80
2018-08-03T05:18:28.085Z,21.90
2018-08-03T05:21:02.723Z,22.10
2018-08-03T05:23:37.733Z,22.20
2018-08-03T05:26:12.093Z,22.30
2018-08-03T05:28:47.009Z,22.50
2018-08-03T05:31:21.922Z,22.90
2018-08-03T05:33:56.072Z,23.30
2018-08-03T05:36:31.075Z,23.60
2018-08-03T05:39:09.494Z,23.90
2018-08-03T05:41:43.915Z,24.30
2018-08-03T05:44:18.804Z,24.90
2018-08-03T05:46:53.552Z,25.50
2018-08-03T05:49:28.390Z,26.10
2018-08-03T05:52:03.380Z,26.60
2018-08-03T05:54:38.118Z,26.90
2018-08-03T05:57:13.246Z,27.20
2018-08-03T05:59:47.541Z,27.20
2018-08-03T06:02:22.344Z,27.10
2018-08-03T06:04:56.839Z,27.20
2018-08-03T06:07:31.781Z,27.60
2018-08-03T06:10:06.279Z,28.00
2018-08-03T06:12:41.283Z,28.40
2018-08-03T06:15:15.732Z,28.80
2018-08-03T06:17:50.557Z,29.20
2018-08-03T06:20:24.926Z,29.50
2018-08-03T06:23:00.085Z,29.70
2018-08-03T06:25:34.773Z,29.90
2018-08-03T06:28:09.951Z,30.10
2018-08-03T06:30:44.330Z,30.20
2018-08-03T06:33:19.215Z,30.40
2018-08-03T06:35:54.453Z,30.60
2018-08-03T06:38:28.753Z,30.80
2018-08-03T06:41:02.918Z,31.00
2018-08-03T06:43:37.045Z,31.10
2018-08-03T06:46:12.101Z,31.30
2018-08-03T06:48:46.333Z,31.50
2018-08-03T06:51:21.177Z,31.70
2018-08-03T06:53:55.919Z,31.80
2018-08-03T06:56:30.133Z,32.00
2018-08-03T06:59:05.238Z,32.20
2018-08-03T07:01:39.759Z,32.30
2018-08-03T07:04:14.526Z,32.40
2018-08-03T07:06:49.258Z,32.40
2018-08-03T07:09:23.928Z,32.50
2018-08-03T07:11:58.839Z,32.50
2018-08-03T07:14:33.386Z,32.50
2018-08-03T07:17:08.349Z,32.50
2018-08-03T07:19:42.987Z,32.60
2018-08-03T07:22:17.570Z,32.70
2018-08-03T07:24:52.408Z,32.70
2018-08-03T07:27:27.205Z,32.80
2018-08-03T07:30:01.930Z,32.70
2018-08-03T07:32:36.692Z,32.60
2018-08-03T07:35:11.674Z,32.50
2018-08-03T07:37:46.113Z,32.50
2018-08-03T07:40:21.052Z,32.70
2018-08-03T07:42:55.607Z,32.90
2018-08-03T07:45:30.915Z,32.90
2018-08-03T07:48:05.292Z,32.80
2018-08-03T07:50:39.988Z,33.00
2018-08-03T07:53:14.771Z,33.00
2018-08-03T07:55:49.376Z,33.20
2018-08-03T07:58:23.567Z,33.10
2018-08-03T08:00:58.644Z,33.20
2018-08-03T08:03:33.176Z,33.20
2018-08-03T08:06:07.655Z,33.20
2018-08-03T08:08:42.437Z,33.30
2018-08-03T08:11:17.359Z,33.40
2018-08-03T08:13:51.889Z,33.50
2018-08-03T08:16:26.572Z,33.60
2018-08-03T08:19:01.482Z,33.60
2018-08-03T08:21:36.596Z,33.50
2018-08-03T08:24:11.562Z,33.40
2018-08-03T08:26:46.114Z,33.40
2018-08-03T08:29:20.879Z,33.30
2018-08-03T08:31:55.820Z,33.20
2018-08-03T08:34:30.006Z,33.30
2018-08-03T08:37:05.565Z,33.20
2018-08-03T08:39:40.543Z,33.20
2018-08-03T08:42:15.236Z,33.10
2018-08-03T08:44:49.723Z,33.20
2018-08-03T08:47:24.919Z,33.20
2018-08-03T08:49:59.251Z,33.10
2018-08-03T08:52:34.417Z,33.20
2018-08-03T08:55:08.838Z,33.20
2018-08-03T08:57:43.601Z,33.20
2018-08-03T09:00:18.699Z,33.30
2018-08-03T09:02:53.109Z,33.40
2018-08-03T09:05:27.256Z,33.50
2018-08-03T09:08:01.508Z,33.70
2018-08-03T09:10:36.436Z,33.90
2018-08-03T09:13:11.485Z,34.00
2018-08-03T09:15:45.503Z,34.10
2018-08-03T09:18:20.357Z,34.30
2018-08-03T09:20:55.501Z,34.30
2018-08-03T09:23:30.491Z,34.10
2018-08-03T09:26:04.828Z,34.10
2018-08-03T09:28:39.673Z,34.30
2018-08-03T09:31:14.444Z,34.40
2018-08-03T09:33:49.725Z,34.70
2018-08-03T09:36:24.437Z,34.80
2018-08-03T09:38:59.339Z,34.90
2018-08-03T09:41:34.136Z,34.80
2018-08-03T09:44:08.863Z,34.80
2018-08-03T09:46:44.538Z,34.80
2018-08-03T09:49:19.286Z,34.50
2018-08-03T09:51:54.333Z,34.50
2018-08-03T09:54:28.556Z,34.60
2018-08-03T09:57:03.146Z,34.70
2018-08-03T09:59:38.143Z,34.50
2018-08-03T10:02:12.424Z,34.60
2018-08-03T10:04:47.176Z,34.60
2018-08-03T10:07:21.549Z,34.70
2018-08-03T10:09:56.202Z,34.90
2018-08-03T10:12:30.971Z,35.00
2018-08-03T10:15:05.890Z,35.00
2018-08-03T10:17:40.903Z,35.00
2018-08-03T10:20:15.764Z,34.70
2018-08-03T10:22:50.721Z,34.60
2018-08-03T10:25:25.820Z,34.70
2018-08-03T10:28:00.456Z,34.60
2018-08-03T10:30:35.489Z,34.60
2018-08-03T10:33:10.341Z,34.50
2018-08-03T10:35:45.357Z,34.40
2018-08-03T10:38:20.122Z,34.40
2018-08-03T10:40:54.831Z,34.30
2018-08-03T10:43:29.547Z,34.30
2018-08-03T10:46:04.189Z,34.10
2018-08-03T10:48:39.319Z,33.90
2018-08-03T10:51:14.282Z,33.60
2018-08-03T10:53:48.567Z,33.60
2018-08-03T10:56:23.316Z,33.60
2018-08-03T10:58:57.720Z,33.60
2018-08-03T11:01:33.508Z,33.50
2018-08-03T11:04:08.223Z,33.40
2018-08-03T11:06:43.215Z,33.00
2018-08-03T11:09:17.776Z,32.50
2018-08-03T11:11:52.357Z,32.00
2018-08-03T11:14:27.088Z,31.80
2018-08-03T11:17:02.051Z,31.70
2018-08-03T11:19:36.340Z,31.70
2018-08-03T11:22:11.054Z,31.50
2018-08-03T11:24:46.086Z,31.50
2018-08-03T11:27:20.953Z,31.60
2018-08-03T11:29:55.250Z,31.70
2018-08-03T11:32:29.839Z,31.80
2018-08-03T11:35:04.599Z,31.70
2018-08-03T11:37:38.997Z,31.60
2018-08-03T11:40:13.595Z,31.40
2018-08-03T11:42:47.910Z,31.20
2018-08-03T11:45:22.988Z,31.10
2018-08-03T11:47:57.666Z,31.00
2018-08-03T11:50:32.589Z,30.90
2018-08-03T11:53:07.087Z,30.90
2018-08-03T11:55:41.821Z,30.90
2018-08-03T11:58:16.511Z,30.80
2018-08-03T12:00:51.451Z,30.80
2018-08-03T12:03:25.607Z,30.80
2018-08-03T12:06:00.306Z,30.80
2018-08-03T12:08:34.816Z,30.80
2018-08-03T12:11:09.657Z,30.80
2018-08-03T12:13:44.332Z,30.80
2018-08-03T12:16:19.292Z,30.90
2018-08-03T12:18:53.890Z,30.90
2018-08-03T12:21:28.735Z,30.90
2018-08-03T12:24:03.941Z,30.90
2018-08-03T12:26:38.394Z,30.90
2018-08-03T12:29:13.086Z,30.80
2018-08-03T12:31:48.435Z,30.80
2018-08-03T12:34:22.997Z,30.80
2018-08-03T12:36:57.384Z,30.90
2018-08-03T12:39:32.280Z,31.00
2018-08-03T12:42:07.536Z,31.20
2018-08-03T12:44:42.007Z,31.20
2018-08-03T12:47:16.941Z,31.30
2018-08-03T12:49:51.443Z,31.40
2018-08-03T12:52:25.793Z,31.40
2018-08-03T12:55:00.711Z,31.40
2018-08-03T12:57:35.565Z,31.50
2018-08-03T13:00:10.258Z,31.40
2018-08-03T13:02:44.962Z,31.40
2018-08-03T13:05:19.625Z,31.40
2018-08-03T13:07:54.910Z,31.40
2018-08-03T13:10:29.095Z,31.30
2018-08-03T13:13:03.944Z,31.30
2018-08-03T13:15:38.619Z,31.30
2018-08-03T13:18:13.387Z,31.20
2018-08-03T13:20:48.034Z,31.10
2018-08-03T13:23:22.656Z,31.10
2018-08-03T13:25:57.360Z,31.10
2018-08-03T13:28:32.658Z,31.00
2018-08-03T13:31:07.329Z,31.00
2018-08-03T13:33:41.942Z,31.00
2018-08-03T13:36:16.688Z,31.00
2018-08-03T13:38:51.321Z,31.00
2018-08-03T13:41:25.929Z,31.00
2018-08-03T13:44:00.661Z,31.00
2018-08-03T13:46:35.408Z,30.90
2018-08-03T13:49:10.188Z,30.90
2018-08-03T13:51:45.068Z,30.80
2018-08-03T13:54:20.454Z,30.80
2018-08-03T13:56:55.490Z,30.90
2018-08-03T13:59:31.081Z,30.80
2018-08-03T14:02:19.475Z,30.80
2018-08-03T14:04:55.304Z,30.80
2018-08-03T14:07:30.225Z,30.80
2018-08-03T14:12:40.889Z,30.80
2018-08-03T14:15:15.625Z,30.80
2018-08-03T14:17:50.228Z,30.80
2018-08-03T14:20:24.855Z,30.80
2018-08-03T14:22:59.505Z,30.80
2018-08-03T14:25:34.370Z,30.80
2018-08-03T14:28:09.107Z,30.90
2018-08-03T14:30:43.819Z,30.90
2018-08-03T14:33:18.880Z,30.90
2018-08-03T14:35:53.525Z,30.90
2018-08-03T14:38:28.046Z,30.90
2018-08-03T14:41:02.699Z,30.90
2018-08-03T14:43:37.492Z,30.80
2018-08-03T14:46:12.435Z,30.90
2018-08-03T14:48:46.995Z,30.90
2018-08-03T14:51:21.674Z,30.90
2018-08-03T14:53:56.129Z,30.80
2018-08-03T14:56:30.985Z,30.80
2018-08-03T14:59:05.845Z,30.90
2018-08-03T15:01:40.697Z,30.80
2018-08-03T15:04:15.760Z,30.90
2018-08-03T15:06:50.725Z,30.90
2018-08-03T15:09:25.487Z,31.00
2018-08-03T15:12:00.375Z,31.00
2018-08-03T15:14:35.281Z,31.00
2018-08-03T15:17:10.175Z,31.00
2018-08-03T15:19:44.500Z,31.00
2018-08-03T15:22:19.157Z,31.00
2018-08-03T15:24:54.059Z,31.00
2018-08-03T15:27:28.759Z,31.00
2018-08-03T15:30:04.466Z,31.00
2018-08-03T15:32:39.460Z,31.00
2018-08-03T15:35:14.568Z,31.10
2018-08-03T15:37:49.241Z,31.10
2018-08-03T15:40:23.840Z,31.10
2018-08-03T15:42:58.553Z,31.10
2018-08-03T15:45:33.207Z,31.10
2018-08-03T15:48:08.127Z,31.10
2018-08-03T15:50:42.650Z,31.10
2018-08-03T15:53:17.445Z,31.00
2018-08-03T15:55:52.130Z,30.90
2018-08-03T15:58:27.845Z,30.90
2018-08-03T16:01:02.595Z,30.80
2018-08-03T16:03:37.391Z,30.80
2018-08-03T16:06:12.104Z,30.80
2018-08-03T16:08:47.394Z,30.80
2018-08-03T16:11:21.810Z,30.80
2018-08-03T16:13:56.740Z,30.80
2018-08-03T16:16:31.424Z,30.80
2018-08-03T16:19:07.214Z,30.80
2018-08-03T16:21:41.403Z,30.80
2018-08-03T16:24:16.110Z,30.80
2018-08-03T16:26:50.855Z,30.80
2018-08-03T16:29:25.023Z,30.80
2018-08-03T16:31:59.835Z,30.90
2018-08-03T16:34:35.094Z,30.90
2018-08-03T16:37:09.350Z,30.90
2018-08-03T16:39:44.066Z,30.90
2018-08-03T16:42:18.632Z,31.00
2018-08-03T16:44:53.349Z,31.00
2018-08-03T16:47:27.928Z,31.00
2018-08-03T16:50:02.744Z,30.90
2018-08-03T16:52:37.426Z,30.90
2018-08-03T16:55:11.903Z,30.80
2018-08-03T16:57:46.805Z,30.70
2018-08-03T17:00:21.489Z,30.70
2018-08-03T17:02:56.032Z,30.60
2018-08-03T17:05:30.760Z,30.60
2018-08-03T17:08:05.633Z,30.60
2018-08-03T17:10:40.695Z,30.50
2018-08-03T17:13:15.188Z,30.50
2018-08-03T17:15:49.883Z,30.50
2018-08-03T17:18:25.017Z,30.50
2018-08-03T17:20:59.358Z,30.40
2018-08-03T17:23:34.028Z,30.30
2018-08-03T17:26:08.261Z,30.30
2018-08-03T17:28:43.724Z,30.30
2018-08-03T17:31:18.983Z,30.20
2018-08-03T17:33:53.789Z,30.10
2018-08-03T17:36:28.941Z,30.10
2018-08-03T17:39:06.661Z,30.00
2018-08-03T17:41:41.233Z,30.00
2018-08-03T17:44:15.842Z,29.90
2018-08-03T17:46:50.859Z,29.90
2018-08-03T17:49:25.885Z,29.90
2018-08-03T17:52:01.037Z,29.80
2018-08-03T17:54:35.771Z,29.90
2018-08-03T17:57:10.583Z,29.80
2018-08-03T17:59:45.390Z,29.80
2018-08-03T18:02:20.206Z,29.70
2018-08-03T18:04:54.686Z,29.60
2018-08-03T18:07:29.406Z,29.50
2018-08-03T18:10:04.847Z,29.50
2018-08-03T18:12:38.984Z,29.40
2018-08-03T18:15:13.748Z,29.40
2018-08-03T18:17:48.489Z,29.40
2018-08-03T18:20:23.493Z,29.40
2018-08-03T18:22:58.279Z,29.40
2018-08-03T18:25:33.603Z,29.30
2018-08-03T18:28:08.347Z,29.30
2018-08-03T18:30:43.264Z,29.20
2018-08-03T18:33:17.808Z,29.20
2018-08-03T18:35:52.521Z,29.10
2018-08-03T18:41:03.044Z,28.90
2018-08-03T18:43:38.173Z,28.90
2018-08-03T18:46:13.162Z,28.80
2018-08-03T18:48:48.302Z,28.80
2018-08-03T18:51:22.603Z,28.70
2018-08-03T18:53:57.050Z,28.70
2018-08-03T18:56:31.530Z,28.60
2018-08-03T18:59:07.122Z,28.50
2018-08-03T19:01:42.109Z,28.50
2018-08-03T19:04:16.729Z,28.40
2018-08-03T19:06:51.671Z,28.30
2018-08-03T19:09:26.126Z,28.20
2018-08-03T19:12:00.914Z,28.00
2018-08-03T19:14:35.782Z,27.90
2018-08-03T19:17:10.555Z,27.80
2018-08-03T19:19:45.208Z,27.70
2018-08-03T19:22:19.925Z,27.50
2018-08-03T19:24:54.865Z,27.40
2018-08-03T19:27:29.238Z,27.30
2018-08-03T19:30:05.019Z,27.20
2018-08-03T19:32:39.810Z,27.10
2018-08-03T19:35:14.269Z,27.00
2018-08-03T19:37:48.947Z,26.90
2018-08-03T19:40:23.784Z,26.80
2018-08-03T19:42:58.475Z,26.80
2018-08-03T19:45:33.300Z,26.70
2018-08-03T19:48:08.210Z,26.70
2018-08-03T19:50:43.198Z,26.60
2018-08-03T19:53:18.191Z,26.50
2018-08-03T19:55:53.309Z,26.50
2018-08-03T19:58:28.173Z,26.50
2018-08-03T20:01:02.956Z,26.40
2018-08-03T20:03:37.962Z,26.30
2018-08-03T20:06:13.080Z,26.20
2018-08-03T20:08:47.534Z,26.10
2018-08-03T20:11:22.541Z,26.10
2018-08-03T20:13:57.031Z,26.00
2018-08-03T20:16:32.491Z,26.00
2018-08-03T20:19:10.223Z,25.90
2018-08-03T20:21:45.190Z,25.80
2018-08-03T20:24:19.785Z,25.70
2018-08-03T20:26:54.717Z,25.70
2018-08-03T20:29:29.266Z,25.60
2018-08-03T20:32:05.033Z,25.50
2018-08-03T20:34:39.754Z,25.40
2018-08-03T20:37:14.476Z,25.40
2018-08-03T20:39:49.211Z,25.30
2018-08-03T20:42:24.427Z,25.20
2018-08-03T20:44:58.889Z,25.20
2018-08-03T20:47:33.651Z,25.10
2018-08-03T20:50:08.476Z,25.00
2018-08-03T20:52:43.336Z,25.00
2018-08-03T20:55:18.032Z,24.90
2018-08-03T20:57:52.698Z,24.80
2018-08-03T21:00:27.712Z,24.70
2018-08-03T21:03:02.634Z,24.70
2018-08-03T21:05:37.379Z,24.60
2018-08-03T21:08:12.115Z,24.60
2018-08-03T21:10:46.757Z,24.50
2018-08-03T21:13:21.735Z,24.50
2018-08-03T21:15:56.608Z,24.40
2018-08-03T21:18:31.300Z,24.30
2018-08-03T21:21:05.944Z,24.30
2018-08-03T21:23:40.624Z,24.20
2018-08-03T21:26:15.174Z,24.20
2018-08-03T21:28:50.170Z,24.10
2018-08-03T21:31:24.721Z,24.10
2018-08-03T21:33:59.796Z,24.00
2018-08-03T21:36:34.019Z,24.00
2018-08-03T21:39:10.582Z,23.90
2018-08-03T21:41:45.420Z,23.90
2018-08-03T21:44:20.139Z,23.80
2018-08-03T21:46:54.875Z,23.80
2018-08-03T21:52:04.137Z,23.60
2018-08-03T21:54:38.866Z,23.60
2018-08-03T21:57:13.466Z,23.60
2018-08-03T21:59:48.084Z,23.50
2018-08-03T22:02:23.210Z,23.50
2018-08-03T22:04:57.583Z,23.50
2018-08-03T22:07:32.391Z,23.40
2018-08-03T22:10:08.104Z,23.40
2018-08-03T22:12:42.973Z,23.40
2018-08-03T22:15:17.368Z,23.30
2018-08-03T22:17:51.958Z,23.30
2018-08-03T22:20:27.128Z,23.30
2018-08-03T22:23:01.761Z,23.20
2018-08-03T22:25:36.233Z,23.20
2018-08-03T22:28:11.200Z,23.10
2018-08-03T22:30:45.504Z,23.10
2018-08-03T22:33:20.240Z,23.00
2018-08-03T22:35:54.969Z,23.00
2018-08-03T22:38:29.549Z,22.90
2018-08-03T22:41:04.380Z,22.90
2018-08-03T22:43:38.846Z,22.90
2018-08-03T22:46:13.621Z,22.80
2018-08-03T22:48:48.299Z,22.80
2018-08-03T22:51:23.623Z,22.70
2018-08-03T22:53:58.706Z,22.70
2018-08-03T22:56:33.424Z,22.60
2018-08-03T22:59:08.210Z,22.60
2018-08-03T23:01:42.946Z,22.60
2018-08-03T23:04:17.251Z,22.50
2018-08-03T23:06:52.380Z,22.60
2018-08-03T23:12:02.072Z,22.50
2018-08-03T23:14:37.177Z,22.40
2018-08-03T23:17:11.873Z,22.40
2018-08-03T23:19:46.712Z,22.40
2018-08-03T23:22:21.829Z,22.30
2018-08-03T23:24:56.931Z,22.30
2018-08-03T23:27:31.358Z,22.30
2018-08-03T23:30:07.747Z,22.30
2018-08-03T23:32:42.567Z,22.20
2018-08-03T23:35:17.672Z,22.20
2018-08-03T23:37:52.854Z,22.20
2018-08-03T23:40:28.025Z,22.10
2018-08-03T23:43:02.673Z,22.10
2018-08-03T23:45:37.413Z,22.10
2018-08-03T23:48:12.459Z,22.10
2018-08-03T23:50:46.907Z,22.10
2018-08-03T23:53:21.797Z,22.00
2018-08-03T23:55:56.282Z,22.00
2018-08-03T23:58:31.091Z,21.90
